Погода Объединенныйна 2 недели

Ростовская область, Россия

21 мая-02 июня
  • 21мая
    Сегодня
    +12°
    +26°
    Небольшая облачность
    ВремяПогодаТемператураВлажностьДавлениеВетер, м/сВероятность осадков
    00:00Ясно и безоблачно+14°C70 %759 мм2.4 м/с2 %
    03:00Ясно и безоблачно+12°C79 %759 мм2.3 м/с2 %
    06:00Ясно и безоблачно+13°C73 %760 мм2.5 м/с2 %
    09:00Ясно и безоблачно+21°C43 %760 мм3.1 м/с2 %
    12:00Облачно с прояснениями+25°C33 %760 мм3.3 м/с2 %
    15:00Небольшая облачность+26°C26 %759 мм3.4 м/с2 %
    18:00Ясно и безоблачно+24°C33 %759 мм2.4 м/с2 %
    21:00Ясно и безоблачно+17°C53 %759 мм2.4 м/с2 %
  • 22мая
    Среда
    +12°
    +27°
    Ясно и безоблачно
    ВремяПогодаТемператураВлажностьДавлениеВетер, м/сВероятность осадков
    00:00Ясно и безоблачно+14°C54 %759 мм2.6 м/с2 %
    03:00Ясно и безоблачно+14°C48 %758 мм3.2 м/с2 %
    06:00Ясно и безоблачно+14°C55 %758 мм3.2 м/с2 %
    09:00Ясно и безоблачно+22°C40 %759 мм2.9 м/с2 %
    12:00Ясно и безоблачно+26°C25 %758 мм5.5 м/с2 %
    15:00Ясно и безоблачно+27°C22 %757 мм5.4 м/с2 %
    18:00Ясно и безоблачно+25°C29 %757 мм3.5 м/с2 %
    21:00Ясно и безоблачно+17°C48 %757 мм2.6 м/с2 %
  • 23мая
    Четверг
    +15°
    +27°
    Ясно и безоблачно
    ВремяПогодаТемператураВлажностьДавлениеВетер, м/сВероятность осадков
    00:00Ясно и безоблачно+14°C60 %757 мм2.2 м/с2 %
    03:00Ясно и безоблачно+13°C58 %757 мм2.8 м/с2 %
    06:00Ясно и безоблачно+14°C60 %757 мм3.5 м/с2 %
    09:00Ясно и безоблачно+21°C43 %757 мм4.3 м/с2 %
    12:00Ясно и безоблачно+25°C25 %757 мм6.1 м/с2 %
    15:00Ясно и безоблачно+26°C24 %756 мм5.4 м/с2 %
    18:00Ясно и безоблачно+26°C25 %756 мм4.9 м/с2 %
    21:00Ясно и безоблачно+20°C45 %757 мм6.5 м/с2 %
  • 24мая
    Пятница
    +13°
    +26°
    Ясно и безоблачно
    ВремяПогодаТемператураВлажностьДавлениеВетер, м/сВероятность осадков
    00:00Ясно и безоблачно+18°C62 %757 мм5.9 м/с2 %
    03:00Ясно и безоблачно+15°C66 %758 мм6.1 м/с2 %
    06:00Ясно и безоблачно+15°C70 %759 мм7.2 м/с2 %
    09:00Ясно и безоблачно+20°C45 %760 мм8.4 м/с2 %
    12:00Ясно и безоблачно+24°C36 %761 мм8.8 м/с2 %
    15:00Ясно и безоблачно+25°C31 %760 мм8.8 м/с4 %
    18:00Ясно и безоблачно+23°C26 %761 мм8.4 м/с3 %
    21:00Ясно и безоблачно+19°C24 %762 мм7.5 м/с2 %
Мы используем cookies
Соглашаюсь